createdAt,value
2018-05-15T02:56:12.501Z,992.7
2018-05-15T02:56:35.325Z,992.7
2018-05-15T02:56:56.284Z,992.7
2018-05-15T02:57:16.957Z,992.7
2018-05-15T04:17:50.957Z,992.9
2018-05-15T04:18:18.082Z,992.9
2018-05-15T04:18:39.284Z,992.9
2018-05-15T04:22:23.532Z,993
2018-05-15T04:24:46.329Z,993.1
2018-05-15T04:25:10.243Z,993
2018-05-15T04:25:31.309Z,993
2018-05-15T04:27:29.583Z,993.1
2018-05-15T04:29:06.371Z,993.1
2018-05-15T04:29:30.035Z,993.1
2018-05-15T04:31:21.256Z,993.1
2018-05-15T04:31:43.979Z,993.1
2018-05-15T04:32:05.074Z,993.1
2018-05-15T04:32:26.137Z,993.1
2018-05-15T04:32:47.190Z,993.1
2018-05-15T04:33:08.286Z,993.1
2018-05-15T04:33:29.369Z,993.1
2018-05-15T04:33:50.362Z,993.1
2018-05-15T04:34:12.800Z,993.1
2018-05-15T04:34:33.591Z,993.1
2018-05-15T04:36:36.766Z,993.1
2018-05-15T04:37:02.394Z,993
2018-05-15T04:37:23.253Z,993
2018-05-15T04:37:43.989Z,993.1
2018-05-15T04:38:05.022Z,993.1
2018-05-15T04:38:25.612Z,993.1
2018-05-15T04:38:46.340Z,993
2018-05-15T04:39:07.229Z,993
2018-05-15T04:39:28.115Z,993
2018-05-15T04:39:48.889Z,993
2018-05-15T04:40:09.764Z,993.1
2018-05-15T04:42:08.146Z,993.1
2018-05-15T04:43:35.183Z,993.1
2018-05-15T04:44:03.259Z,993.1
2018-05-15T04:44:24.682Z,993.1
2018-05-15T04:44:45.648Z,993.1
2018-05-15T04:45:06.558Z,993.1
2018-05-15T04:45:27.633Z,993.1
2018-05-15T04:45:48.892Z,993.1
2018-05-15T04:47:07.498Z,993.1
2018-05-15T04:47:53.770Z,993.1
2018-05-15T04:48:37.759Z,993.1
2018-05-15T04:49:03.910Z,993.1
2018-05-15T04:49:24.993Z,993.2
2018-05-15T04:49:54.634Z,993.2
2018-05-15T04:50:28.439Z,993.1
2018-05-15T04:50:51.703Z,993.1
2018-05-15T04:51:37.945Z,993.2
2018-05-15T04:52:57.913Z,993.2
2018-05-15T04:54:16.249Z,993.2
2018-05-15T04:54:45.185Z,993.2
2018-05-15T04:55:05.803Z,993.2
2018-05-15T04:56:27.886Z,993.2
2018-05-15T04:57:21.091Z,993.1
2018-05-15T04:58:06.650Z,993.2
2018-05-15T04:58:35.021Z,993.1
2018-05-15T04:59:37.329Z,993.1
2018-05-15T05:00:15.401Z,993.1
2018-05-15T05:01:03.967Z,993.1
2018-05-15T05:02:02.625Z,993.1
2018-05-15T05:02:59.862Z,993.2
2018-05-15T05:03:44.826Z,993.1
2018-05-15T05:04:25.550Z,993.2
2018-05-15T05:04:52.445Z,993.2
2018-05-15T05:05:13.351Z,993.1
2018-05-15T05:05:34.358Z,993.2
2018-05-15T05:07:13.309Z,993.2
2018-05-15T05:07:36.340Z,993.2
2018-05-15T05:07:57.233Z,993.2
2018-05-15T05:08:18.253Z,993.2
2018-05-15T05:09:01.300Z,993.1
2018-05-15T05:09:53.602Z,993.2
2018-05-15T05:10:15.218Z,993.2
2018-05-15T05:10:35.965Z,993.1
2018-05-15T05:11:16.659Z,993.1
2018-05-15T05:11:55.025Z,993.2
2018-05-15T05:12:17.217Z,993.1
2018-05-15T05:12:38.184Z,993.2
2018-05-15T05:13:18.530Z,993.1
2018-05-15T05:13:50.772Z,993.2
2018-05-15T05:14:48.603Z,993.1
2018-05-15T05:15:49.510Z,993.2
2018-05-15T05:16:32.327Z,993.2
2018-05-15T05:17:10.895Z,993.2
2018-05-15T05:17:49.448Z,993.2
2018-05-15T05:18:49.753Z,993.2
2018-05-15T05:19:32.612Z,993.3
2018-05-15T05:20:33.648Z,993.3
2018-05-15T05:21:22.252Z,993.3
2018-05-15T05:22:40.798Z,993.2
2018-05-15T05:23:30.543Z,993.2
2018-05-15T05:24:02.420Z,993.2
2018-05-15T05:24:35.950Z,993.2
2018-05-15T05:25:41.642Z,993.2
2018-05-15T05:26:24.112Z,993.2
2018-05-15T05:27:09.739Z,993.2
2018-05-15T05:27:42.014Z,993.2
2018-05-15T05:28:29.077Z,993.2
2018-05-15T05:28:59.367Z,993.1
2018-05-15T05:29:37.711Z,993.2
2018-05-15T05:29:59.529Z,993.2
2018-05-15T05:31:03.267Z,993.2
2018-05-15T05:31:46.930Z,993.2
2018-05-15T05:32:25.013Z,993.2
2018-05-15T05:33:10.881Z,993.2
2018-05-15T05:33:49.220Z,993.2
2018-05-15T05:34:21.794Z,993.2
2018-05-15T05:35:24.356Z,993.2
2018-05-15T05:35:45.597Z,993.2
2018-05-15T05:36:06.656Z,993.2
2018-05-15T05:36:27.522Z,993.1
2018-05-15T05:36:48.392Z,993.2
2018-05-15T05:37:09.371Z,993.1
2018-05-15T05:37:30.624Z,993.1
2018-05-15T05:37:51.467Z,993.1
2018-05-15T05:38:12.727Z,993.1
2018-05-15T05:38:34.419Z,993.1
2018-05-15T05:38:56.058Z,993.2
2018-05-15T05:39:16.840Z,993.1
2018-05-15T05:39:37.892Z,993.1
2018-05-15T05:40:13.423Z,993.1
2018-05-15T05:40:34.122Z,993.1
2018-05-15T05:40:55.070Z,993.1
2018-05-15T05:41:15.774Z,993.1
2018-05-15T05:41:36.816Z,993.1
2018-05-15T05:41:57.531Z,993.1
2018-05-15T05:42:18.723Z,993.1
2018-05-15T05:42:39.833Z,993.1
2018-05-15T05:43:00.684Z,993.1
2018-05-15T05:43:21.464Z,993.1
2018-05-15T05:43:42.581Z,993.2
2018-05-15T05:44:03.474Z,993.1
2018-05-15T05:44:24.115Z,993.1
2018-05-15T05:44:44.896Z,993.1
2018-05-15T05:45:06.069Z,993.1
2018-05-15T05:45:26.841Z,993.1
2018-05-15T05:45:47.729Z,993.1
2018-05-15T05:46:08.649Z,993.1
2018-05-15T05:46:44.343Z,993.1
2018-05-15T05:47:05.606Z,993.1
2018-05-15T05:47:27.195Z,993.1
2018-05-15T05:47:48.167Z,993.1
2018-05-15T05:48:09.119Z,993.1
2018-05-15T05:48:29.899Z,993.1
2018-05-15T05:48:50.704Z,993.1
2018-05-15T05:49:12.185Z,993.1
2018-05-15T05:49:33.081Z,993.2
2018-05-15T05:49:54.024Z,993.2
2018-05-15T05:50:15.416Z,993.1
2018-05-15T05:50:36.450Z,993.1
2018-05-15T05:50:57.771Z,993.1
2018-05-15T05:51:19.426Z,993.1
2018-05-15T05:51:42.145Z,993.2
2018-05-15T05:52:07.529Z,993.1
2018-05-15T05:52:32.169Z,993.1
2018-05-15T05:52:53.341Z,993.1
2018-05-15T05:53:14.371Z,993.1
2018-05-15T05:53:35.342Z,993.1
2018-05-15T05:53:57.626Z,993.1
2018-05-15T05:54:18.669Z,993.1
2018-05-15T05:54:42.283Z,993.1
2018-05-15T05:55:05.094Z,993.1
2018-05-15T05:55:30.852Z,993.1
2018-05-15T05:55:55.136Z,993.1
2018-05-15T05:56:16.847Z,993.1
2018-05-15T05:56:38.738Z,993.1
2018-05-15T05:57:00.556Z,993.1
2018-05-15T05:57:22.028Z,993.1
2018-05-15T05:57:43.186Z,993.1
2018-05-15T05:58:04.056Z,993.1
2018-05-15T05:58:25.295Z,993.1
2018-05-15T05:58:46.397Z,993.1
2018-05-15T05:59:08.160Z,993
2018-05-15T05:59:30.831Z,993.1
2018-05-15T05:59:52.580Z,993.1
2018-05-15T06:00:14.562Z,993.1
2018-05-15T06:00:36.114Z,993.1
2018-05-15T06:00:57.770Z,993.1
2018-05-15T06:01:18.495Z,993.1
2018-05-15T06:01:39.201Z,993
2018-05-15T06:02:00.594Z,993.1
2018-05-15T06:02:21.382Z,993.1
2018-05-15T06:02:42.044Z,993.1
2018-05-15T06:03:02.937Z,993.1
2018-05-15T06:03:25.184Z,993
2018-05-15T06:03:46.746Z,993.1
2018-05-15T06:04:07.864Z,993.1
2018-05-15T06:04:29.489Z,993.1
2018-05-15T06:04:50.901Z,993.1
2018-05-15T06:05:12.576Z,993
2018-05-15T06:05:33.683Z,993.1
2018-05-15T06:05:55.020Z,993
2018-05-15T06:06:15.990Z,993.1
2018-05-15T06:06:37.497Z,993.1
2018-05-15T06:06:58.590Z,993
2018-05-15T06:07:19.827Z,993
2018-05-15T06:07:41.941Z,993.1
2018-05-15T06:08:04.251Z,993.1
2018-05-15T06:08:25.949Z,993.1
2018-05-15T06:08:48.464Z,993.1
2018-05-15T06:09:11.667Z,993
2018-05-15T06:09:33.821Z,993.1
2018-05-15T06:09:56.161Z,993.1
2018-05-15T06:10:17.585Z,993.1
2018-05-15T06:10:47.113Z,993.1
2018-05-15T06:11:09.314Z,993.1
2018-05-15T06:11:30.973Z,993.1
2018-05-15T06:11:53.744Z,993.1
2018-05-15T06:12:15.386Z,993.1
2018-05-15T06:12:36.643Z,993.1
2018-05-15T06:12:57.803Z,993.1
2018-05-15T06:13:18.746Z,993.1
2018-05-15T06:13:40.302Z,993.1
2018-05-15T06:14:02.905Z,993.1
2018-05-15T06:14:24.779Z,993.1
2018-05-15T06:14:45.972Z,993.1
2018-05-15T06:15:09.015Z,993.1
2018-05-15T06:15:30.786Z,993.1
2018-05-15T06:15:52.767Z,993.1
2018-05-15T06:16:14.338Z,993.1
2018-05-15T06:16:38.147Z,993.1
2018-05-15T06:17:00.010Z,993.1
2018-05-15T06:17:21.594Z,993.1
2018-05-15T06:17:43.105Z,993.1
2018-05-15T06:18:04.964Z,993.1
2018-05-15T06:18:26.099Z,993.1
2018-05-15T06:18:47.720Z,993.1
2018-05-15T06:19:11.463Z,993.2
2018-05-15T06:19:33.125Z,993.1
2018-05-15T06:19:55.107Z,993.1
2018-05-15T06:20:21.037Z,993.1
2018-05-15T06:20:43.496Z,993.1
2018-05-15T06:21:05.915Z,993.1
2018-05-15T06:21:27.181Z,993.1
2018-05-15T06:21:48.381Z,993.1
2018-05-15T06:22:10.949Z,993.1
2018-05-15T06:22:32.828Z,993.1
2018-05-15T06:22:53.768Z,993
2018-05-15T06:23:15.096Z,993.1
2018-05-15T06:23:37.628Z,993
2018-05-15T06:23:59.518Z,993
2018-05-15T06:24:27.683Z,993.1
2018-05-15T06:24:49.024Z,993
2018-05-15T06:25:09.905Z,993
2018-05-15T06:25:31.217Z,993
2018-05-15T06:25:53.050Z,993
2018-05-15T06:26:13.968Z,993.1
2018-05-15T06:26:35.137Z,993
2018-05-15T06:26:56.578Z,993
2018-05-15T06:27:17.956Z,993
2018-05-15T06:27:39.854Z,993
2018-05-15T06:28:01.569Z,993
2018-05-15T06:28:23.227Z,993
2018-05-15T06:28:44.765Z,993
2018-05-15T06:29:06.525Z,993
2018-05-15T06:29:28.036Z,993
2018-05-15T06:29:51.711Z,993
2018-05-15T06:30:16.904Z,993
2018-05-15T06:30:38.823Z,993
2018-05-15T06:31:00.859Z,993
2018-05-15T06:31:22.354Z,993
2018-05-15T06:31:44.161Z,993
2018-05-15T06:32:05.642Z,993
2018-05-15T06:32:29.506Z,993
2018-05-15T06:32:50.642Z,993
2018-05-15T06:33:14.286Z,993
2018-05-15T06:33:36.548Z,993.1
2018-05-15T06:33:58.386Z,993.1
2018-05-15T06:34:19.873Z,993.1
2018-05-15T06:34:41.056Z,993
2018-05-15T06:35:02.851Z,993.1
2018-05-15T06:35:24.247Z,993.1
2018-05-15T06:35:45.370Z,993.1
2018-05-15T06:36:07.153Z,993
2018-05-15T06:36:28.469Z,993.1
2018-05-15T06:36:49.806Z,993.1
2018-05-15T06:37:10.974Z,993.1
2018-05-15T06:37:31.962Z,993
2018-05-15T06:37:57.674Z,993
2018-05-15T06:38:19.830Z,993
2018-05-15T06:38:41.539Z,993
2018-05-15T06:39:02.518Z,993
2018-05-15T06:39:24.228Z,993
2018-05-15T06:39:45.446Z,993
2018-05-15T06:40:07.267Z,993
2018-05-15T06:40:29.452Z,993
2018-05-15T06:40:50.805Z,993
2018-05-15T06:41:12.731Z,993
2018-05-15T06:41:33.653Z,993
2018-05-15T06:41:55.432Z,992.9
2018-05-15T06:42:16.260Z,993
2018-05-15T06:42:37.561Z,992.9
2018-05-15T06:42:58.524Z,992.9
2018-05-15T06:43:20.260Z,992.9
2018-05-15T06:43:41.787Z,992.9
2018-05-15T06:44:03.484Z,992.9
2018-05-15T06:44:24.452Z,992.9
2018-05-15T06:44:48.495Z,993
2018-05-15T06:45:11.220Z,992.9
2018-05-15T06:45:33.286Z,993
2018-05-15T06:45:54.495Z,993
2018-05-15T06:46:15.757Z,993
2018-05-15T06:46:36.736Z,993
2018-05-15T06:46:58.081Z,992.9
2018-05-15T06:47:19.134Z,992.9
2018-05-15T06:47:40.299Z,992.9
2018-05-15T06:48:02.570Z,993
2018-05-15T06:48:24.452Z,993
2018-05-15T06:48:45.807Z,993
2018-05-15T06:49:07.222Z,993
2018-05-15T06:49:29.279Z,993
2018-05-15T06:49:50.636Z,992.9
2018-05-15T06:50:11.878Z,993
2018-05-15T06:50:38.950Z,993
2018-05-15T06:50:59.699Z,993
2018-05-15T06:51:21.033Z,993
2018-05-15T06:51:42.684Z,993
2018-05-15T06:52:03.670Z,993
2018-05-15T06:52:25.347Z,993
2018-05-15T06:52:49.420Z,993
2018-05-15T06:53:10.622Z,993
2018-05-15T06:53:32.598Z,993
2018-05-15T06:53:53.648Z,993
2018-05-15T06:54:14.788Z,993
2018-05-15T06:54:35.850Z,993
2018-05-15T06:54:57.442Z,993
2018-05-15T06:55:19.423Z,993
2018-05-15T06:55:40.602Z,993
2018-05-15T06:56:01.814Z,993
2018-05-15T06:56:23.319Z,992.9
2018-05-15T06:56:45.530Z,993
2018-05-15T06:57:06.747Z,992.9
2018-05-15T06:57:27.969Z,993
2018-05-15T06:57:50.332Z,992.9
2018-05-15T06:58:12.146Z,992.9
2018-05-15T06:58:34.216Z,993
2018-05-15T06:58:55.891Z,992.9
2018-05-15T06:59:17.685Z,992.9
2018-05-15T06:59:41.688Z,992.9
2018-05-15T07:00:03.105Z,992.9
2018-05-15T07:00:23.991Z,992.9
2018-05-15T07:00:44.845Z,992.9
2018-05-15T07:01:06.158Z,992.9
2018-05-15T07:01:27.370Z,992.9
2018-05-15T07:01:48.806Z,992.9
2018-05-15T07:02:10.036Z,992.9
2018-05-15T07:02:31.627Z,992.9
2018-05-15T07:02:52.788Z,992.9
2018-05-15T07:03:14.057Z,992.8
2018-05-15T07:03:35.503Z,992.9
2018-05-15T07:03:56.846Z,992.9
2018-05-15T07:04:17.998Z,992.9
2018-05-15T07:04:39.209Z,992.9
2018-05-15T07:05:01.069Z,992.9
2018-05-15T07:05:22.777Z,992.9
2018-05-15T07:05:46.853Z,992.9
2018-05-15T07:06:10.517Z,992.9
2018-05-15T07:06:31.799Z,992.9
2018-05-15T07:06:53.333Z,992.9
2018-05-15T07:07:14.831Z,992.9
2018-05-15T07:07:35.795Z,992.9
2018-05-15T07:07:57.448Z,992.9
2018-05-15T07:08:19.914Z,993
2018-05-15T07:08:41.271Z,993
2018-05-15T07:09:04.339Z,992.9
2018-05-15T07:09:25.144Z,993
2018-05-15T07:09:46.086Z,992.9
2018-05-15T07:10:07.459Z,992.9
2018-05-15T07:10:28.848Z,992.9
2018-05-15T07:10:50.385Z,992.9
2018-05-15T07:11:11.449Z,992.9
2018-05-15T07:11:34.552Z,992.9
2018-05-15T07:11:55.801Z,992.9
2018-05-15T07:12:17.078Z,992.9
2018-05-15T07:12:38.828Z,992.9
2018-05-15T07:13:03.006Z,992.9
2018-05-15T07:13:24.258Z,992.9
2018-05-15T07:13:48.533Z,992.9
2018-05-15T07:14:09.958Z,992.9
2018-05-15T07:14:31.726Z,992.9
2018-05-15T07:17:53.008Z,992.9
2018-05-15T07:18:14.143Z,992.9
2018-05-15T07:18:37.703Z,993
2018-05-15T07:18:58.837Z,992.9
2018-05-15T07:19:22.756Z,992.9
2018-05-15T07:19:49.762Z,993
2018-05-15T07:20:11.330Z,992.9
2018-05-15T07:20:32.613Z,992.9
2018-05-15T07:20:53.796Z,992.9
2018-05-15T07:21:16.142Z,992.9
2018-05-15T07:21:39.169Z,992.9
2018-05-15T07:22:00.721Z,993
2018-05-15T07:22:22.305Z,992.9
2018-05-15T07:22:44.251Z,992.9
2018-05-15T07:23:06.644Z,992.9
2018-05-15T07:23:27.838Z,992.9
2018-05-15T07:23:49.414Z,992.9
2018-05-15T07:24:12.398Z,993
2018-05-15T07:24:33.468Z,993
2018-05-15T07:24:54.627Z,993
2018-05-15T07:25:15.608Z,993
2018-05-15T07:25:39.667Z,992.9
2018-05-15T07:26:03.859Z,992.9
2018-05-15T07:26:25.684Z,992.9
2018-05-15T07:26:47.473Z,992.9
2018-05-15T07:27:11.194Z,992.9
2018-05-15T07:27:32.611Z,992.9
2018-05-15T07:27:53.972Z,992.9
2018-05-15T07:28:16.737Z,992.9
2018-05-15T07:28:39.542Z,993
2018-05-15T07:29:01.843Z,993
2018-05-15T07:29:24.252Z,992.9
2018-05-15T07:29:45.786Z,992.9
2018-05-15T07:30:07.676Z,992.9
2018-05-15T07:30:29.856Z,992.9
2018-05-15T07:30:53.183Z,992.9
2018-05-15T07:31:14.266Z,992.9
2018-05-15T07:31:36.490Z,992.9
2018-05-15T07:31:58.804Z,992.9
2018-05-15T07:32:20.455Z,992.9
2018-05-15T07:32:42.675Z,992.9
2018-05-15T07:33:03.989Z,992.9
2018-05-15T07:33:26.845Z,992.9
2018-05-15T07:33:48.731Z,992.9
2018-05-15T07:34:11.270Z,992.9
2018-05-15T07:34:33.747Z,992.9
2018-05-15T07:34:55.300Z,992.9
2018-05-15T07:35:17.522Z,993
2018-05-15T07:35:40.255Z,992.9
2018-05-15T07:36:06.219Z,992.9
2018-05-15T07:36:28.151Z,992.9
2018-05-15T07:36:50.163Z,993
2018-05-15T07:37:12.061Z,992.9
2018-05-15T07:37:34.178Z,993
2018-05-15T07:37:55.085Z,993
2018-05-15T07:38:19.455Z,993
2018-05-15T07:38:41.849Z,993
2018-05-15T07:39:04.254Z,993
2018-05-15T07:39:25.070Z,993
2018-05-15T07:39:47.247Z,992.9
2018-05-15T07:40:10.681Z,992.9
2018-05-15T07:40:33.475Z,993
2018-05-15T07:40:57.925Z,992.9
2018-05-15T07:41:21.981Z,992.9
2018-05-15T07:41:44.258Z,992.9
2018-05-15T07:42:06.052Z,992.9
2018-05-15T07:42:27.771Z,992.9
2018-05-15T07:42:49.910Z,992.9
2018-05-15T07:43:10.882Z,993
2018-05-15T07:43:31.754Z,992.9
2018-05-15T07:43:53.047Z,992.9
2018-05-15T07:44:14.942Z,992.9
2018-05-15T07:44:36.928Z,992.9
2018-05-15T07:44:58.799Z,992.9
2018-05-15T07:45:20.509Z,992.9
2018-05-15T07:45:43.873Z,992.9
2018-05-15T07:46:06.684Z,992.9
2018-05-15T07:46:28.901Z,992.9
2018-05-15T07:46:49.493Z,992.8
2018-05-15T07:47:10.380Z,992.8
2018-05-15T07:47:31.692Z,992.8
2018-05-15T07:47:52.759Z,992.8
2018-05-15T07:48:13.413Z,992.8
2018-05-15T07:48:34.719Z,992.8
2018-05-15T07:48:57.252Z,992.8
2018-05-15T07:49:18.295Z,992.8
2018-05-15T07:49:39.242Z,992.8
2018-05-15T07:50:00.923Z,992.8
2018-05-15T07:50:22.294Z,992.8
2018-05-15T07:50:44.191Z,992.8
2018-05-15T07:51:04.891Z,992.8
2018-05-15T07:51:25.827Z,992.8
2018-05-15T07:51:47.942Z,992.8
2018-05-15T07:52:09.088Z,992.8
2018-05-15T07:52:30.855Z,992.9
2018-05-15T07:52:52.956Z,992.8
2018-05-15T07:53:13.984Z,992.8
2018-05-15T07:53:36.568Z,992.8
2018-05-15T07:53:58.810Z,992.8
2018-05-15T07:54:20.400Z,992.8
2018-05-15T07:54:43.915Z,992.8
2018-05-15T07:55:05.213Z,992.8
2018-05-15T07:55:26.536Z,992.8
2018-05-15T07:55:47.606Z,992.8
2018-05-15T07:56:08.438Z,992.8
2018-05-15T07:56:31.265Z,992.9
2018-05-15T07:56:52.385Z,992.8
2018-05-15T07:57:13.419Z,992.8
2018-05-15T07:57:35.148Z,992.8
2018-05-15T07:57:56.459Z,992.8
2018-05-15T07:58:18.096Z,992.9
2018-05-15T07:58:39.518Z,992.9
2018-05-15T07:59:00.600Z,992.9
2018-05-15T07:59:21.743Z,992.9
2018-05-15T07:59:42.542Z,992.9
2018-05-15T08:00:04.447Z,992.9
2018-05-15T08:00:25.317Z,992.9
2018-05-15T08:00:47.141Z,992.9
2018-05-15T08:01:08.020Z,993
2018-05-15T08:01:28.856Z,992.9
2018-05-15T08:01:50.937Z,993
2018-05-15T08:02:12.124Z,993
2018-05-15T08:02:32.820Z,993
2018-05-15T08:02:53.753Z,992.9
2018-05-15T08:03:14.767Z,992.9
2018-05-15T08:03:43.135Z,993
2018-05-15T08:04:04.259Z,992.9
2018-05-15T08:04:25.190Z,992.9
2018-05-15T08:04:46.033Z,992.9
2018-05-15T08:05:07.213Z,992.9
2018-05-15T08:05:28.081Z,992.9
2018-05-15T08:05:49.394Z,992.9
2018-05-15T08:06:13.991Z,992.9
2018-05-15T08:06:35.426Z,992.9
2018-05-15T08:06:56.260Z,992.8
2018-05-15T08:07:17.381Z,992.8
2018-05-15T08:07:38.134Z,992.8
2018-05-15T08:07:59.808Z,992.8
2018-05-15T08:08:20.721Z,992.8
2018-05-15T08:08:42.786Z,992.8
2018-05-15T08:09:04.114Z,992.8
2018-05-15T08:09:25.283Z,992.8
2018-05-15T08:09:46.441Z,992.8
2018-05-15T08:10:07.365Z,992.8
2018-05-15T08:10:28.422Z,992.8
2018-05-15T08:10:50.502Z,992.8
2018-05-15T08:11:11.269Z,992.8
2018-05-15T08:11:32.852Z,992.8
2018-05-15T08:11:53.671Z,992.8
2018-05-15T08:12:14.638Z,992.8
2018-05-15T08:12:35.732Z,992.8
2018-05-15T08:12:57.395Z,992.7
2018-05-15T08:13:18.200Z,992.8
2018-05-15T08:13:40.207Z,992.8
2018-05-15T08:14:03.483Z,992.7
2018-05-15T08:14:24.810Z,992.8
2018-05-15T08:14:45.610Z,992.8
2018-05-15T08:15:06.902Z,992.8
2018-05-15T08:15:29.712Z,992.7
2018-05-15T08:15:51.003Z,992.8
2018-05-15T08:16:12.807Z,992.8
2018-05-15T08:16:33.898Z,992.8
2018-05-15T08:16:55.144Z,992.8
2018-05-15T08:17:16.662Z,992.8
2018-05-15T08:17:37.780Z,992.8
2018-05-15T08:17:59.579Z,992.8
2018-05-15T08:18:21.663Z,992.8
2018-05-15T08:18:43.163Z,992.8
2018-05-15T08:19:05.749Z,992.8
2018-05-15T08:19:26.892Z,992.8
2018-05-15T08:19:48.115Z,992.7
2018-05-15T08:20:09.345Z,992.8
2018-05-15T08:20:30.318Z,992.8
2018-05-15T08:20:51.595Z,992.8
2018-05-15T08:21:12.757Z,992.8
2018-05-15T08:21:34.468Z,992.8
2018-05-15T08:21:55.461Z,992.8
2018-05-15T08:22:17.543Z,992.8
2018-05-15T08:22:40.109Z,992.8
2018-05-15T08:23:00.945Z,992.8
2018-05-15T08:23:23.563Z,992.8
2018-05-15T08:23:45.227Z,992.8
2018-05-15T08:24:06.443Z,992.8
2018-05-15T08:24:27.982Z,992.8
2018-05-15T08:24:49.461Z,992.8
2018-05-15T08:25:11.179Z,992.8
2018-05-15T08:25:32.819Z,992.8
2018-05-15T08:25:53.633Z,992.8
2018-05-15T08:26:14.769Z,992.8
2018-05-15T08:26:36.317Z,992.8
2018-05-15T08:26:57.301Z,992.8
2018-05-15T08:27:19.719Z,992.8
2018-05-15T08:27:40.758Z,992.8
2018-05-15T08:28:02.957Z,992.9
2018-05-15T08:28:24.384Z,992.8
2018-05-15T08:28:45.291Z,992.8
2018-05-15T08:29:08.913Z,992.8
2018-05-15T08:29:30.294Z,992.8
2018-05-15T08:29:51.468Z,992.8
2018-05-15T08:30:13.789Z,992.8
2018-05-15T08:30:35.804Z,992.8
2018-05-15T08:30:57.322Z,992.8
2018-05-15T08:31:19.211Z,992.7
2018-05-15T08:31:40.004Z,992.8
2018-05-15T08:32:00.808Z,992.8
2018-05-15T08:32:23.013Z,992.8
2018-05-15T08:32:44.759Z,992.8
2018-05-15T08:33:05.472Z,992.8
2018-05-15T08:33:26.557Z,992.8
2018-05-15T08:33:47.438Z,992.8
2018-05-15T08:34:08.106Z,992.8
2018-05-15T08:34:29.228Z,992.8
2018-05-15T08:34:50.741Z,992.8
2018-05-15T08:35:11.551Z,992.8
2018-05-15T08:35:33.240Z,992.8
2018-05-15T08:35:55.970Z,992.8
2018-05-15T08:36:17.879Z,992.8
2018-05-15T08:36:39.247Z,992.8
2018-05-15T08:37:00.284Z,992.8
2018-05-15T08:37:22.106Z,992.8
2018-05-15T08:37:43.500Z,992.8
2018-05-15T08:38:05.493Z,992.8
2018-05-15T08:38:26.825Z,992.8
2018-05-15T08:38:47.892Z,992.7
2018-05-15T08:39:08.830Z,992.7
2018-05-15T08:39:29.943Z,992.7
2018-05-15T08:39:52.582Z,992.8
2018-05-15T08:40:15.233Z,992.8
2018-05-15T08:40:36.821Z,992.8
2018-05-15T08:40:57.604Z,992.8
2018-05-15T08:41:18.627Z,992.8
2018-05-15T08:41:40.288Z,992.8
2018-05-15T08:42:01.438Z,992.8
2018-05-15T08:42:22.673Z,992.8
2018-05-15T08:42:43.505Z,992.8
2018-05-15T08:43:04.673Z,992.8
2018-05-15T08:43:26.466Z,992.8
2018-05-15T08:43:47.376Z,992.8
2018-05-15T08:44:08.343Z,992.7
2018-05-15T08:44:29.425Z,992.8
2018-05-15T08:44:50.473Z,992.8
2018-05-15T08:45:12.145Z,992.8
2018-05-15T08:45:33.476Z,992.8
2018-05-15T08:45:55.020Z,992.8
2018-05-15T08:46:17.987Z,992.7
2018-05-15T08:46:38.981Z,992.7
2018-05-15T08:47:00.574Z,992.7
2018-05-15T08:47:22.236Z,992.7
2018-05-15T08:47:44.237Z,992.8
2018-05-15T08:48:05.899Z,992.7
2018-05-15T08:48:26.918Z,992.7
2018-05-15T08:48:48.747Z,992.7
2018-05-15T08:49:09.950Z,992.7
2018-05-15T08:49:30.691Z,992.7
2018-05-15T08:49:53.220Z,992.7
2018-05-15T08:50:14.777Z,992.6
2018-05-15T08:50:37.736Z,992.7
2018-05-15T08:50:59.427Z,992.7
2018-05-15T08:51:20.077Z,992.7
2018-05-15T08:51:40.976Z,992.7
2018-05-15T08:52:01.589Z,992.7
2018-05-15T08:52:23.895Z,992.7
2018-05-15T08:52:44.775Z,992.7
2018-05-15T08:53:06.274Z,992.7
2018-05-15T08:53:27.445Z,992.7
2018-05-15T08:53:48.216Z,992.7
2018-05-15T08:54:09.554Z,992.7
2018-05-15T08:54:30.539Z,992.8
2018-05-15T08:54:51.105Z,992.7
2018-05-15T08:55:11.575Z,992.7
2018-05-15T08:55:33.006Z,992.7
2018-05-15T08:55:53.930Z,992.7
2018-05-15T08:56:16.829Z,992.7
2018-05-15T08:56:37.844Z,992.7
2018-05-15T08:56:58.419Z,992.7
2018-05-15T08:57:19.378Z,992.7
2018-05-15T08:57:40.953Z,992.7
2018-05-15T08:58:01.488Z,992.7
2018-05-15T08:58:22.299Z,992.7
2018-05-15T08:58:43.195Z,992.7
2018-05-15T08:59:05.989Z,992.7
2018-05-15T08:59:26.680Z,992.7
2018-05-15T08:59:47.726Z,992.7
2018-05-15T09:00:08.556Z,992.7
2018-05-15T09:00:29.592Z,992.7
2018-05-15T09:00:50.540Z,992.7
2018-05-15T09:01:15.947Z,992.7
2018-05-15T09:01:38.315Z,992.6
2018-05-15T09:01:59.757Z,992.7
2018-05-15T09:02:20.551Z,992.6
2018-05-15T09:02:43.313Z,992.7
2018-05-15T09:03:04.101Z,992.6
2018-05-15T09:03:24.876Z,992.7
2018-05-15T09:03:45.693Z,992.7
2018-05-15T09:04:06.549Z,992.7
2018-05-15T09:04:28.130Z,992.7
2018-05-15T09:04:49.823Z,992.7
2018-05-15T09:05:10.322Z,992.7
2018-05-15T09:05:31.067Z,992.7
2018-05-15T09:05:54.758Z,992.7
2018-05-15T09:06:16.430Z,992.7
2018-05-15T09:06:39.229Z,992.7
2018-05-15T09:07:00.211Z,992.7
2018-05-15T09:07:20.906Z,992.6
2018-05-15T09:07:41.703Z,992.6
2018-05-15T09:08:02.302Z,992.6
2018-05-15T09:08:23.236Z,992.6
2018-05-15T09:08:44.927Z,992.6
2018-05-15T09:09:05.539Z,992.6
2018-05-15T09:09:26.244Z,992.6
2018-05-15T09:09:47.112Z,992.6
2018-05-15T09:10:07.854Z,992.6
2018-05-15T09:10:29.757Z,992.7
2018-05-15T09:10:50.316Z,992.6
2018-05-15T09:11:12.732Z,992.6
2018-05-15T09:11:34.271Z,992.7
2018-05-15T09:11:55.361Z,992.7
2018-05-15T09:12:16.359Z,992.7
2018-05-15T09:12:36.889Z,992.7
2018-05-15T09:12:57.470Z,992.7
2018-05-15T09:13:19.014Z,992.7
2018-05-15T09:13:40.103Z,992.7
2018-05-15T09:14:00.303Z,992.7
2018-05-15T09:14:20.723Z,992.7
2018-05-15T09:14:41.370Z,992.6
2018-05-15T09:15:03.959Z,992.7
2018-05-15T09:15:24.577Z,992.7
2018-05-15T09:15:45.176Z,992.7
2018-05-15T09:16:07.694Z,992.8
2018-05-15T09:16:28.759Z,992.7
2018-05-15T09:16:49.844Z,992.8
2018-05-15T09:17:10.133Z,992.7
2018-05-15T09:17:30.524Z,992.7
2018-05-15T09:17:51.688Z,992.7
2018-05-15T09:18:12.131Z,992.8
2018-05-15T09:18:33.295Z,992.7
2018-05-15T09:18:54.723Z,992.8
2018-05-15T09:19:15.467Z,992.8
2018-05-15T09:19:36.187Z,992.8
2018-05-15T09:19:56.931Z,992.8
2018-05-15T09:20:18.693Z,992.8
2018-05-15T09:20:39.114Z,992.8
2018-05-15T09:21:00.051Z,992.8
2018-05-15T09:21:20.548Z,992.8
2018-05-15T09:21:41.124Z,992.8
2018-05-15T09:22:02.359Z,992.7
2018-05-15T09:22:22.923Z,992.7
2018-05-15T09:22:44.197Z,992.7
2018-05-15T09:23:05.608Z,992.7
2018-05-15T09:23:28.026Z,992.8
2018-05-15T09:23:48.702Z,992.7
2018-05-15T09:24:09.887Z,992.7
2018-05-15T09:24:30.661Z,992.8
2018-05-15T09:24:51.143Z,992.7
2018-05-15T09:25:12.744Z,992.7
2018-05-15T09:25:33.566Z,992.7
2018-05-15T09:25:54.278Z,992.7
2018-05-15T09:26:14.893Z,992.7
2018-05-15T09:26:35.187Z,992.7
2018-05-15T09:26:56.291Z,992.7
2018-05-15T09:27:16.902Z,992.7
2018-05-15T09:27:38.247Z,992.7
2018-05-15T09:27:59.265Z,992.7
2018-05-15T09:28:19.903Z,992.7
2018-05-15T09:28:41.325Z,992.7
2018-05-15T09:29:03.773Z,992.7
2018-05-15T09:29:24.172Z,992.6
2018-05-15T09:29:44.588Z,992.7
2018-05-15T09:30:05.657Z,992.7
2018-05-15T09:30:26.171Z,992.7
2018-05-15T09:30:48.205Z,992.7
2018-05-15T09:31:09.000Z,992.7
2018-05-15T09:31:29.899Z,992.7
2018-05-15T09:31:50.848Z,992.7
2018-05-15T09:32:12.359Z,992.7
2018-05-15T09:32:33.356Z,992.7
2018-05-15T09:32:53.674Z,992.7
2018-05-15T09:33:14.390Z,992.7
2018-05-15T09:33:36.151Z,992.7
2018-05-15T09:33:56.878Z,992.7
2018-05-15T09:34:17.715Z,992.7
2018-05-15T09:34:40.067Z,992.7
2018-05-15T09:35:02.280Z,992.7
2018-05-15T09:35:22.610Z,992.7
2018-05-15T09:35:42.908Z,992.8
2018-05-15T09:36:03.396Z,992.7
2018-05-15T09:36:25.846Z,992.7
2018-05-15T09:36:47.829Z,992.7
2018-05-15T09:37:08.682Z,992.7
2018-05-15T09:37:29.859Z,992.7
2018-05-15T09:37:50.566Z,992.7
2018-05-15T09:38:11.713Z,992.7
2018-05-15T09:38:33.249Z,992.7
2018-05-15T09:38:55.257Z,992.7
2018-05-15T09:39:15.761Z,992.6
2018-05-15T09:39:37.562Z,992.6
2018-05-15T09:39:58.404Z,992.6